sensor_id;sensor_type;location;lat;lon;timestamp;P1;durP1;ratioP1;P2;durP2;ratioP2
67227;SDS011;54139;42.616;23.748;2023-02-28T00:00:29;47.92;;;31.38;;
67227;SDS011;54139;42.616;23.748;2023-02-28T00:02:54;52.78;;;31.55;;
67227;SDS011;54139;42.616;23.748;2023-02-28T00:05:21;55.22;;;29.80;;
67227;SDS011;54139;42.616;23.748;2023-02-28T00:07:47;50.88;;;32.45;;
67227;SDS011;54139;42.616;23.748;2023-02-28T00:10:14;52.22;;;30.90;;
67227;SDS011;54139;42.616;23.748;2023-02-28T00:12:46;59.30;;;34.90;;
67227;SDS011;54139;42.616;23.748;2023-02-28T00:17:48;51.03;;;32.42;;
67227;SDS011;54139;42.616;23.748;2023-02-28T00:20:14;45.15;;;29.38;;
67227;SDS011;54139;42.616;23.748;2023-02-28T00:38:41;47.72;;;30.40;;
67227;SDS011;54139;42.616;23.748;2023-02-28T00:41:07;46.97;;;29.75;;
67227;SDS011;54139;42.616;23.748;2023-02-28T00:43:33;48.63;;;30.00;;
67227;SDS011;54139;42.616;23.748;2023-02-28T00:45:59;45.15;;;28.30;;
67227;SDS011;54139;42.616;23.748;2023-02-28T00:48:25;45.63;;;28.50;;
67227;SDS011;54139;42.616;23.748;2023-02-28T01:29:38;67.38;;;35.60;;
67227;SDS011;54139;42.616;23.748;2023-02-28T01:34:39;65.32;;;35.95;;
67227;SDS011;54139;42.616;23.748;2023-02-28T01:39:40;48.20;;;28.63;;
67227;SDS011;54139;42.616;23.748;2023-02-28T03:02:28;50.22;;;27.52;;
67227;SDS011;54139;42.616;23.748;2023-02-28T03:04:59;47.40;;;28.80;;
67227;SDS011;54139;42.616;23.748;2023-02-28T03:07:28;49.35;;;30.80;;
67227;SDS011;54139;42.616;23.748;2023-02-28T03:09:54;77.70;;;37.70;;
67227;SDS011;54139;42.616;23.748;2023-02-28T03:40:49;35.88;;;22.85;;
67227;SDS011;54139;42.616;23.748;2023-02-28T05:26:34;32.53;;;19.20;;
67227;SDS011;54139;42.616;23.748;2023-02-28T05:29:01;26.30;;;16.83;;
67227;SDS011;54139;42.616;23.748;2023-02-28T05:31:27;25.45;;;18.67;;
67227;SDS011;54139;42.616;23.748;2023-02-28T05:33:52;28.80;;;19.30;;
67227;SDS011;54139;42.616;23.748;2023-02-28T05:36:18;34.25;;;20.58;;
67227;SDS011;54139;42.616;23.748;2023-02-28T05:38:48;54.30;;;30.90;;
67227;SDS011;54139;42.616;23.748;2023-02-28T05:41:14;49.83;;;29.40;;
67227;SDS011;54139;42.616;23.748;2023-02-28T05:43:39;36.40;;;22.13;;
67227;SDS011;54139;42.616;23.748;2023-02-28T05:46:05;32.80;;;20.90;;
67227;SDS011;54139;42.616;23.748;2023-02-28T05:48:33;27.75;;;20.48;;
67227;SDS011;54139;42.616;23.748;2023-02-28T05:50:59;35.25;;;23.80;;
67227;SDS011;54139;42.616;23.748;2023-02-28T05:53:25;42.75;;;24.13;;
67227;SDS011;54139;42.616;23.748;2023-02-28T05:55:51;36.38;;;22.65;;
67227;SDS011;54139;42.616;23.748;2023-02-28T05:58:17;38.08;;;24.88;;
67227;SDS011;54139;42.616;23.748;2023-02-28T06:00:43;45.80;;;27.65;;
67227;SDS011;54139;42.616;23.748;2023-02-28T06:03:09;39.78;;;24.50;;
67227;SDS011;54139;42.616;23.748;2023-02-28T06:05:35;53.20;;;31.27;;
67227;SDS011;54139;42.616;23.748;2023-02-28T06:08:01;35.83;;;24.05;;
67227;SDS011;54139;42.616;23.748;2023-02-28T06:10:26;36.22;;;25.52;;
67227;SDS011;54139;42.616;23.748;2023-02-28T06:12:52;46.22;;;30.83;;
67227;SDS011;54139;42.616;23.748;2023-02-28T06:17:53;44.30;;;31.25;;
67227;SDS011;54139;42.616;23.748;2023-02-28T06:20:18;45.67;;;30.50;;
67227;SDS011;54139;42.616;23.748;2023-02-28T06:22:44;39.15;;;27.48;;
67227;SDS011;54139;42.616;23.748;2023-02-28T06:25:10;44.42;;;28.92;;
67227;SDS011;54139;42.616;23.748;2023-02-28T06:27:36;29.40;;;20.63;;
67227;SDS011;54139;42.616;23.748;2023-02-28T06:30:02;36.65;;;20.90;;
67227;SDS011;54139;42.616;23.748;2023-02-28T06:32:28;37.17;;;22.10;;
67227;SDS011;54139;42.616;23.748;2023-02-28T06:34:54;31.58;;;22.27;;
67227;SDS011;54139;42.616;23.748;2023-02-28T06:37:19;29.25;;;21.60;;
67227;SDS011;54139;42.616;23.748;2023-02-28T06:39:45;32.35;;;22.65;;
67227;SDS011;54139;42.616;23.748;2023-02-28T06:57:42;30.02;;;19.33;;
67227;SDS011;54139;42.616;23.748;2023-02-28T07:00:08;53.97;;;35.40;;
67227;SDS011;54139;42.616;23.748;2023-02-28T07:02:35;32.00;;;22.77;;
67227;SDS011;54139;42.616;23.748;2023-02-28T07:05:02;33.97;;;22.42;;
67227;SDS011;54139;42.616;23.748;2023-02-28T07:07:29;29.02;;;19.13;;
67227;SDS011;54139;42.616;23.748;2023-02-28T07:09:55;28.63;;;20.58;;
67227;SDS011;54139;42.616;23.748;2023-02-28T07:12:21;32.13;;;23.63;;
67227;SDS011;54139;42.616;23.748;2023-02-28T07:17:19;35.85;;;23.52;;
67227;SDS011;54139;42.616;23.748;2023-02-28T07:19:45;32.15;;;23.60;;
67227;SDS011;54139;42.616;23.748;2023-02-28T07:22:10;38.60;;;25.38;;
67227;SDS011;54139;42.616;23.748;2023-02-28T07:24:36;38.63;;;25.65;;
67227;SDS011;54139;42.616;23.748;2023-02-28T07:27:03;49.90;;;28.73;;
67227;SDS011;54139;42.616;23.748;2023-02-28T07:29:28;38.72;;;25.08;;
67227;SDS011;54139;42.616;23.748;2023-02-28T07:31:54;40.47;;;27.80;;
67227;SDS011;54139;42.616;23.748;2023-02-28T07:34:23;53.92;;;28.58;;
67227;SDS011;54139;42.616;23.748;2023-02-28T07:36:49;50.58;;;31.27;;
67227;SDS011;54139;42.616;23.748;2023-02-28T07:39:18;44.63;;;27.25;;
67227;SDS011;54139;42.616;23.748;2023-02-28T07:46:54;39.90;;;24.85;;
67227;SDS011;54139;42.616;23.748;2023-02-28T07:49:20;44.13;;;28.38;;
67227;SDS011;54139;42.616;23.748;2023-02-28T07:56:55;38.10;;;22.65;;
67227;SDS011;54139;42.616;23.748;2023-02-28T07:59:21;33.47;;;20.65;;
67227;SDS011;54139;42.616;23.748;2023-02-28T08:04:21;39.05;;;24.67;;
67227;SDS011;54139;42.616;23.748;2023-02-28T08:06:47;37.90;;;23.40;;
67227;SDS011;54139;42.616;23.748;2023-02-28T08:09:13;35.83;;;23.13;;
67227;SDS011;54139;42.616;23.748;2023-02-28T08:11:39;36.70;;;23.88;;
67227;SDS011;54139;42.616;23.748;2023-02-28T08:14:05;35.67;;;21.98;;
67227;SDS011;54139;42.616;23.748;2023-02-28T08:16:30;37.20;;;23.15;;
67227;SDS011;54139;42.616;23.748;2023-02-28T08:18:56;32.38;;;20.08;;
67227;SDS011;54139;42.616;23.748;2023-02-28T08:21:24;33.08;;;20.30;;
67227;SDS011;54139;42.616;23.748;2023-02-28T08:23:50;25.77;;;17.42;;
67227;SDS011;54139;42.616;23.748;2023-02-28T08:26:16;27.05;;;18.15;;
67227;SDS011;54139;42.616;23.748;2023-02-28T08:28:43;24.65;;;15.43;;
67227;SDS011;54139;42.616;23.748;2023-02-28T08:31:13;26.73;;;16.05;;
67227;SDS011;54139;42.616;23.748;2023-02-28T08:33:40;25.90;;;17.13;;
67227;SDS011;54139;42.616;23.748;2023-02-28T08:36:06;26.90;;;17.95;;
67227;SDS011;54139;42.616;23.748;2023-02-28T08:38:33;27.27;;;16.75;;
67227;SDS011;54139;42.616;23.748;2023-02-28T08:41:02;22.08;;;15.23;;
67227;SDS011;54139;42.616;23.748;2023-02-28T08:43:31;21.20;;;15.80;;
67227;SDS011;54139;42.616;23.748;2023-02-28T08:45:56;22.80;;;16.10;;
67227;SDS011;54139;42.616;23.748;2023-02-28T08:48:25;25.52;;;17.05;;
67227;SDS011;54139;42.616;23.748;2023-02-28T08:50:55;20.73;;;14.25;;
67227;SDS011;54139;42.616;23.748;2023-02-28T08:55:59;20.35;;;14.68;;
67227;SDS011;54139;42.616;23.748;2023-02-28T08:58:26;17.83;;;13.02;;
67227;SDS011;54139;42.616;23.748;2023-02-28T09:00:52;24.15;;;13.57;;
67227;SDS011;54139;42.616;23.748;2023-02-28T09:03:18;17.70;;;14.10;;
67227;SDS011;54139;42.616;23.748;2023-02-28T09:06:00;23.42;;;14.48;;
67227;SDS011;54139;42.616;23.748;2023-02-28T09:08:27;16.67;;;13.88;;
67227;SDS011;54139;42.616;23.748;2023-02-28T09:10:53;20.40;;;13.75;;
67227;SDS011;54139;42.616;23.748;2023-02-28T09:13:20;16.98;;;13.20;;
67227;SDS011;54139;42.616;23.748;2023-02-28T09:15:46;20.13;;;12.35;;
67227;SDS011;54139;42.616;23.748;2023-02-28T09:18:12;23.23;;;12.85;;
67227;SDS011;54139;42.616;23.748;2023-02-28T09:20:39;23.63;;;13.48;;
67227;SDS011;54139;42.616;23.748;2023-02-28T09:23:07;17.85;;;12.50;;
67227;SDS011;54139;42.616;23.748;2023-02-28T09:25:33;20.05;;;13.80;;
67227;SDS011;54139;42.616;23.748;2023-02-28T09:27:59;23.23;;;14.75;;
67227;SDS011;54139;42.616;23.748;2023-02-28T09:30:25;20.92;;;14.50;;
67227;SDS011;54139;42.616;23.748;2023-02-28T09:32:51;16.00;;;11.95;;
67227;SDS011;54139;42.616;23.748;2023-02-28T09:35:19;19.13;;;12.85;;
67227;SDS011;54139;42.616;23.748;2023-02-28T09:37:46;21.08;;;14.35;;
67227;SDS011;54139;42.616;23.748;2023-02-28T09:40:12;21.40;;;14.65;;
67227;SDS011;54139;42.616;23.748;2023-02-28T09:42:39;19.08;;;14.02;;
67227;SDS011;54139;42.616;23.748;2023-02-28T09:45:06;21.00;;;13.95;;
67227;SDS011;54139;42.616;23.748;2023-02-28T09:47:43;15.35;;;12.77;;
67227;SDS011;54139;42.616;23.748;2023-02-28T09:52:51;17.10;;;13.10;;
67227;SDS011;54139;42.616;23.748;2023-02-28T09:55:20;22.23;;;14.15;;
67227;SDS011;54139;42.616;23.748;2023-02-28T09:57:55;18.42;;;12.88;;
67227;SDS011;54139;42.616;23.748;2023-02-28T10:00:35;17.55;;;12.48;;
67227;SDS011;54139;42.616;23.748;2023-02-28T10:05:57;20.23;;;13.68;;
67227;SDS011;54139;42.616;23.748;2023-02-28T10:08:29;21.38;;;14.70;;
67227;SDS011;54139;42.616;23.748;2023-02-28T10:11:08;25.73;;;16.98;;
67227;SDS011;54139;42.616;23.748;2023-02-28T10:22:08;33.22;;;19.90;;
67227;SDS011;54139;42.616;23.748;2023-02-28T10:24:41;28.17;;;20.17;;
67227;SDS011;54139;42.616;23.748;2023-02-28T10:29:45;34.35;;;20.42;;
67227;SDS011;54139;42.616;23.748;2023-02-28T10:32:16;29.83;;;18.05;;
67227;SDS011;54139;42.616;23.748;2023-02-28T10:34:43;29.55;;;18.15;;
67227;SDS011;54139;42.616;23.748;2023-02-28T10:37:10;28.85;;;21.00;;
67227;SDS011;54139;42.616;23.748;2023-02-28T10:39:37;31.45;;;21.25;;
67227;SDS011;54139;42.616;23.748;2023-02-28T10:42:24;32.28;;;21.65;;
67227;SDS011;54139;42.616;23.748;2023-02-28T10:47:40;26.50;;;20.50;;
67227;SDS011;54139;42.616;23.748;2023-02-28T10:55:35;22.95;;;16.60;;
67227;SDS011;54139;42.616;23.748;2023-02-28T10:58:01;26.38;;;17.40;;
67227;SDS011;54139;42.616;23.748;2023-02-28T11:00:32;23.52;;;17.83;;
67227;SDS011;54139;42.616;23.748;2023-02-28T11:02:59;17.23;;;14.30;;
67227;SDS011;54139;42.616;23.748;2023-02-28T11:05:29;19.35;;;17.33;;
67227;SDS011;54139;42.616;23.748;2023-02-28T11:10:43;24.20;;;17.77;;
67227;SDS011;54139;42.616;23.748;2023-02-28T11:13:19;19.85;;;15.25;;
67227;SDS011;54139;42.616;23.748;2023-02-28T11:15:52;21.75;;;15.45;;
67227;SDS011;54139;42.616;23.748;2023-02-28T11:20:57;22.70;;;16.83;;
67227;SDS011;54139;42.616;23.748;2023-02-28T11:23:28;19.23;;;16.60;;
67227;SDS011;54139;42.616;23.748;2023-02-28T11:25:56;18.25;;;15.30;;
67227;SDS011;54139;42.616;23.748;2023-02-28T11:31:01;19.38;;;15.32;;
67227;SDS011;54139;42.616;23.748;2023-02-28T11:33:47;20.60;;;16.35;;
67227;SDS011;54139;42.616;23.748;2023-02-28T11:38:40;22.10;;;16.33;;
67227;SDS011;54139;42.616;23.748;2023-02-28T11:41:11;18.52;;;14.85;;
67227;SDS011;54139;42.616;23.748;2023-02-28T11:44:05;17.35;;;15.57;;
67227;SDS011;54139;42.616;23.748;2023-02-28T11:46:54;17.27;;;15.52;;
67227;SDS011;54139;42.616;23.748;2023-02-28T11:49:30;20.52;;;17.08;;
67227;SDS011;54139;42.616;23.748;2023-02-28T11:52:02;20.38;;;16.33;;
67227;SDS011;54139;42.616;23.748;2023-02-28T12:19:21;15.52;;;12.65;;
67227;SDS011;54139;42.616;23.748;2023-02-28T12:24:49;14.05;;;12.02;;
67227;SDS011;54139;42.616;23.748;2023-02-28T12:27:21;15.95;;;12.55;;
67227;SDS011;54139;42.616;23.748;2023-02-28T12:29:53;14.65;;;10.48;;
67227;SDS011;54139;42.616;23.748;2023-02-28T12:32:39;25.90;;;12.02;;
67227;SDS011;54139;42.616;23.748;2023-02-28T12:35:11;11.43;;;10.05;;
67227;SDS011;54139;42.616;23.748;2023-02-28T12:40:25;14.18;;;10.60;;
67227;SDS011;54139;42.616;23.748;2023-02-28T12:43:02;16.48;;;9.45;;
67227;SDS011;54139;42.616;23.748;2023-02-28T12:48:00;15.63;;;9.40;;
67227;SDS011;54139;42.616;23.748;2023-02-28T12:50:27;13.45;;;9.20;;
67227;SDS011;54139;42.616;23.748;2023-02-28T13:09:33;9.57;;;8.38;;
67227;SDS011;54139;42.616;23.748;2023-02-28T13:11:59;12.48;;;8.55;;
67227;SDS011;54139;42.616;23.748;2023-02-28T13:14:28;16.00;;;8.15;;
67227;SDS011;54139;42.616;23.748;2023-02-28T13:22:39;13.88;;;11.60;;
67227;SDS011;54139;42.616;23.748;2023-02-28T13:27:50;15.35;;;12.18;;
67227;SDS011;54139;42.616;23.748;2023-02-28T13:35:45;19.27;;;14.98;;
67227;SDS011;54139;42.616;23.748;2023-02-28T13:38:45;19.67;;;15.05;;
67227;SDS011;54139;42.616;23.748;2023-02-28T13:46:32;22.67;;;16.98;;
67227;SDS011;54139;42.616;23.748;2023-02-28T13:51:46;23.45;;;16.90;;
67227;SDS011;54139;42.616;23.748;2023-02-28T14:05:44;27.63;;;18.55;;
67227;SDS011;54139;42.616;23.748;2023-02-28T14:10:47;24.88;;;16.75;;
67227;SDS011;54139;42.616;23.748;2023-02-28T14:16:11;25.65;;;16.50;;
67227;SDS011;54139;42.616;23.748;2023-02-28T14:18:42;24.02;;;18.95;;
67227;SDS011;54139;42.616;23.748;2023-02-28T14:21:24;27.47;;;17.00;;
67227;SDS011;54139;42.616;23.748;2023-02-28T14:37:19;15.55;;;11.80;;
67227;SDS011;54139;42.616;23.748;2023-02-28T14:39:46;17.75;;;13.65;;
67227;SDS011;54139;42.616;23.748;2023-02-28T14:42:31;17.08;;;14.35;;
67227;SDS011;54139;42.616;23.748;2023-02-28T14:45:02;14.00;;;11.65;;
67227;SDS011;54139;42.616;23.748;2023-02-28T14:47:32;14.88;;;10.73;;
67227;SDS011;54139;42.616;23.748;2023-02-28T14:49:59;12.60;;;11.13;;
67227;SDS011;54139;42.616;23.748;2023-02-28T14:52:28;12.88;;;9.98;;
67227;SDS011;54139;42.616;23.748;2023-02-28T14:55:00;13.27;;;10.15;;
67227;SDS011;54139;42.616;23.748;2023-02-28T14:57:41;9.80;;;7.72;;
67227;SDS011;54139;42.616;23.748;2023-02-28T15:02:47;11.93;;;8.38;;
67227;SDS011;54139;42.616;23.748;2023-02-28T15:07:41;10.10;;;7.25;;
67227;SDS011;54139;42.616;23.748;2023-02-28T15:13:01;7.10;;;5.30;;
67227;SDS011;54139;42.616;23.748;2023-02-28T15:18:00;10.98;;;5.82;;
67227;SDS011;54139;42.616;23.748;2023-02-28T15:20:28;5.55;;;5.05;;
67227;SDS011;54139;42.616;23.748;2023-02-28T15:22:55;6.03;;;4.90;;
67227;SDS011;54139;42.616;23.748;2023-02-28T15:25:23;6.15;;;5.63;;
67227;SDS011;54139;42.616;23.748;2023-02-28T15:27:50;8.32;;;6.55;;
67227;SDS011;54139;42.616;23.748;2023-02-28T15:30:19;5.10;;;4.70;;
67227;SDS011;54139;42.616;23.748;2023-02-28T15:32:47;6.45;;;5.07;;
67227;SDS011;54139;42.616;23.748;2023-02-28T15:35:30;5.15;;;4.65;;
67227;SDS011;54139;42.616;23.748;2023-02-28T15:38:00;4.72;;;4.32;;
67227;SDS011;54139;42.616;23.748;2023-02-28T15:40:32;4.32;;;3.92;;
67227;SDS011;54139;42.616;23.748;2023-02-28T15:43:07;5.13;;;3.28;;
67227;SDS011;54139;42.616;23.748;2023-02-28T15:45:38;4.07;;;3.45;;
67227;SDS011;54139;42.616;23.748;2023-02-28T15:48:18;7.15;;;3.22;;
67227;SDS011;54139;42.616;23.748;2023-02-28T15:50:47;4.18;;;3.78;;
67227;SDS011;54139;42.616;23.748;2023-02-28T15:53:18;4.38;;;3.97;;
67227;SDS011;54139;42.616;23.748;2023-02-28T15:55:51;4.35;;;3.95;;
67227;SDS011;54139;42.616;23.748;2023-02-28T15:58:19;6.45;;;5.32;;
67227;SDS011;54139;42.616;23.748;2023-02-28T16:00:59;8.45;;;6.05;;
67227;SDS011;54139;42.616;23.748;2023-02-28T16:03:35;11.77;;;6.57;;
67227;SDS011;54139;42.616;23.748;2023-02-28T16:08:44;9.02;;;4.90;;
67227;SDS011;54139;42.616;23.748;2023-02-28T16:11:10;7.68;;;5.60;;
67227;SDS011;54139;42.616;23.748;2023-02-28T16:13:36;7.72;;;5.40;;
67227;SDS011;54139;42.616;23.748;2023-02-28T16:16:01;8.52;;;5.03;;
67227;SDS011;54139;42.616;23.748;2023-02-28T16:18:27;10.75;;;5.57;;
67227;SDS011;54139;42.616;23.748;2023-02-28T16:20:52;11.00;;;5.80;;
67227;SDS011;54139;42.616;23.748;2023-02-28T16:23:18;11.27;;;5.47;;
67227;SDS011;54139;42.616;23.748;2023-02-28T16:25:43;6.88;;;5.03;;
67227;SDS011;54139;42.616;23.748;2023-02-28T16:28:32;6.65;;;4.57;;
67227;SDS011;54139;42.616;23.748;2023-02-28T16:30:59;8.23;;;5.53;;
67227;SDS011;54139;42.616;23.748;2023-02-28T16:33:25;7.85;;;5.35;;
67227;SDS011;54139;42.616;23.748;2023-02-28T16:35:50;5.78;;;4.60;;
67227;SDS011;54139;42.616;23.748;2023-02-28T16:38:16;8.05;;;5.72;;
67227;SDS011;54139;42.616;23.748;2023-02-28T16:40:41;10.20;;;5.95;;
67227;SDS011;54139;42.616;23.748;2023-02-28T16:43:13;9.23;;;6.18;;
67227;SDS011;54139;42.616;23.748;2023-02-28T16:45:42;7.30;;;5.72;;
67227;SDS011;54139;42.616;23.748;2023-02-28T16:48:10;5.95;;;5.35;;
67227;SDS011;54139;42.616;23.748;2023-02-28T16:50:37;6.60;;;4.70;;
67227;SDS011;54139;42.616;23.748;2023-02-28T16:53:03;5.78;;;5.18;;
67227;SDS011;54139;42.616;23.748;2023-02-28T16:55:29;7.45;;;5.07;;
67227;SDS011;54139;42.616;23.748;2023-02-28T16:57:59;8.18;;;5.07;;
67227;SDS011;54139;42.616;23.748;2023-02-28T17:02:51;4.60;;;4.18;;
67227;SDS011;54139;42.616;23.748;2023-02-28T17:05:16;4.60;;;3.83;;
67227;SDS011;54139;42.616;23.748;2023-02-28T17:07:44;4.57;;;4.18;;
67227;SDS011;54139;42.616;23.748;2023-02-28T17:10:28;4.03;;;3.60;;
67227;SDS011;54139;42.616;23.748;2023-02-28T17:12:54;3.78;;;3.13;;
67227;SDS011;54139;42.616;23.748;2023-02-28T17:15:19;4.22;;;3.83;;
67227;SDS011;54139;42.616;23.748;2023-02-28T17:17:46;3.60;;;3.30;;
67227;SDS011;54139;42.616;23.748;2023-02-28T17:20:17;3.30;;;3.00;;
67227;SDS011;54139;42.616;23.748;2023-02-28T17:22:47;3.25;;;2.95;;
67227;SDS011;54139;42.616;23.748;2023-02-28T17:25:13;3.67;;;2.90;;
67227;SDS011;54139;42.616;23.748;2023-02-28T17:27:39;2.67;;;2.47;;
67227;SDS011;54139;42.616;23.748;2023-02-28T17:30:13;4.35;;;3.45;;
67227;SDS011;54139;42.616;23.748;2023-02-28T17:32:40;4.07;;;3.58;;
67227;SDS011;54139;42.616;23.748;2023-02-28T17:35:06;4.93;;;3.55;;
67227;SDS011;54139;42.616;23.748;2023-02-28T17:37:32;3.65;;;3.35;;
67227;SDS011;54139;42.616;23.748;2023-02-28T17:39:57;5.20;;;3.60;;
67227;SDS011;54139;42.616;23.748;2023-02-28T17:42:23;4.20;;;3.15;;
67227;SDS011;54139;42.616;23.748;2023-02-28T17:44:48;6.72;;;3.50;;
67227;SDS011;54139;42.616;23.748;2023-02-28T17:47:14;3.58;;;3.10;;
67227;SDS011;54139;42.616;23.748;2023-02-28T17:49:39;3.70;;;3.30;;
67227;SDS011;54139;42.616;23.748;2023-02-28T17:52:04;2.92;;;2.72;;
67227;SDS011;54139;42.616;23.748;2023-02-28T17:54:30;3.65;;;3.33;;
67227;SDS011;54139;42.616;23.748;2023-02-28T17:56:56;3.83;;;3.47;;
67227;SDS011;54139;42.616;23.748;2023-02-28T17:59:21;3.53;;;3.22;;
67227;SDS011;54139;42.616;23.748;2023-02-28T18:01:47;3.80;;;3.05;;
67227;SDS011;54139;42.616;23.748;2023-02-28T18:04:12;2.95;;;2.70;;
67227;SDS011;54139;42.616;23.748;2023-02-28T18:06:41;3.03;;;2.80;;
67227;SDS011;54139;42.616;23.748;2023-02-28T18:09:12;3.00;;;2.80;;
67227;SDS011;54139;42.616;23.748;2023-02-28T18:11:38;3.22;;;2.92;;
67227;SDS011;54139;42.616;23.748;2023-02-28T18:14:08;3.30;;;3.00;;
67227;SDS011;54139;42.616;23.748;2023-02-28T18:16:34;2.83;;;2.60;;
67227;SDS011;54139;42.616;23.748;2023-02-28T18:18:59;2.60;;;2.40;;
67227;SDS011;54139;42.616;23.748;2023-02-28T18:21:27;3.28;;;3.03;;
67227;SDS011;54139;42.616;23.748;2023-02-28T18:23:53;2.95;;;2.75;;
67227;SDS011;54139;42.616;23.748;2023-02-28T18:26:18;3.13;;;2.83;;
67227;SDS011;54139;42.616;23.748;2023-02-28T18:28:44;2.70;;;2.42;;
67227;SDS011;54139;42.616;23.748;2023-02-28T18:31:11;2.17;;;1.98;;
67227;SDS011;54139;42.616;23.748;2023-02-28T18:33:39;2.45;;;2.25;;
67227;SDS011;54139;42.616;23.748;2023-02-28T18:36:06;3.05;;;2.63;;
67227;SDS011;54139;42.616;23.748;2023-02-28T18:38:32;2.70;;;2.15;;
67227;SDS011;54139;42.616;23.748;2023-02-28T18:40:59;2.42;;;2.22;;
67227;SDS011;54139;42.616;23.748;2023-02-28T18:43:26;2.35;;;2.17;;
67227;SDS011;54139;42.616;23.748;2023-02-28T18:45:53;2.20;;;2.08;;
67227;SDS011;54139;42.616;23.748;2023-02-28T18:48:19;2.70;;;2.50;;
67227;SDS011;54139;42.616;23.748;2023-02-28T18:50:47;1.88;;;1.77;;
67227;SDS011;54139;42.616;23.748;2023-02-28T18:53:14;2.60;;;2.35;;
67227;SDS011;54139;42.616;23.748;2023-02-28T18:55:40;2.70;;;2.50;;
67227;SDS011;54139;42.616;23.748;2023-02-28T18:58:05;2.60;;;2.40;;
67227;SDS011;54139;42.616;23.748;2023-02-28T19:00:31;2.72;;;2.53;;
67227;SDS011;54139;42.616;23.748;2023-02-28T19:02:57;3.03;;;2.83;;
67227;SDS011;54139;42.616;23.748;2023-02-28T19:05:24;4.18;;;3.17;;
67227;SDS011;54139;42.616;23.748;2023-02-28T19:07:49;3.95;;;3.65;;
67227;SDS011;54139;42.616;23.748;2023-02-28T19:10:15;3.85;;;3.55;;
67227;SDS011;54139;42.616;23.748;2023-02-28T19:12:41;3.75;;;3.55;;
67227;SDS011;54139;42.616;23.748;2023-02-28T19:15:07;5.15;;;4.65;;
67227;SDS011;54139;42.616;23.748;2023-02-28T19:17:34;5.18;;;4.78;;
67227;SDS011;54139;42.616;23.748;2023-02-28T19:20:00;6.25;;;5.75;;
67227;SDS011;54139;42.616;23.748;2023-02-28T19:22:29;5.28;;;4.78;;
67227;SDS011;54139;42.616;23.748;2023-02-28T19:24:56;7.22;;;6.22;;
67227;SDS011;54139;42.616;23.748;2023-02-28T19:27:21;6.60;;;6.00;;
67227;SDS011;54139;42.616;23.748;2023-02-28T19:29:47;6.95;;;6.35;;
67227;SDS011;54139;42.616;23.748;2023-02-28T19:32:14;6.32;;;5.72;;
67227;SDS011;54139;42.616;23.748;2023-02-28T19:34:40;6.68;;;5.97;;
67227;SDS011;54139;42.616;23.748;2023-02-28T19:37:10;6.93;;;6.22;;
67227;SDS011;54139;42.616;23.748;2023-02-28T19:39:36;7.18;;;6.57;;
67227;SDS011;54139;42.616;23.748;2023-02-28T19:42:10;6.77;;;6.23;;
67227;SDS011;54139;42.616;23.748;2023-02-28T19:44:40;7.15;;;6.45;;
67227;SDS011;54139;42.616;23.748;2023-02-28T19:47:06;8.25;;;6.22;;
67227;SDS011;54139;42.616;23.748;2023-02-28T19:49:32;7.00;;;6.30;;
67227;SDS011;54139;42.616;23.748;2023-02-28T19:51:58;4.97;;;4.55;;
67227;SDS011;54139;42.616;23.748;2023-02-28T19:54:24;5.90;;;5.40;;
67227;SDS011;54139;42.616;23.748;2023-02-28T19:56:50;6.07;;;5.57;;
67227;SDS011;54139;42.616;23.748;2023-02-28T19:59:15;6.47;;;5.97;;
67227;SDS011;54139;42.616;23.748;2023-02-28T20:01:41;5.00;;;4.53;;
67227;SDS011;54139;42.616;23.748;2023-02-28T20:04:08;5.65;;;5.18;;
67227;SDS011;54139;42.616;23.748;2023-02-28T20:06:34;5.25;;;4.78;;
67227;SDS011;54139;42.616;23.748;2023-02-28T20:09:00;5.88;;;5.38;;
67227;SDS011;54139;42.616;23.748;2023-02-28T20:11:25;5.53;;;5.13;;
67227;SDS011;54139;42.616;23.748;2023-02-28T20:13:51;5.07;;;4.68;;
67227;SDS011;54139;42.616;23.748;2023-02-28T20:16:17;5.45;;;5.05;;
67227;SDS011;54139;42.616;23.748;2023-02-28T20:18:43;5.57;;;4.93;;
67227;SDS011;54139;42.616;23.748;2023-02-28T20:21:09;6.10;;;5.63;;
67227;SDS011;54139;42.616;23.748;2023-02-28T20:23:39;4.72;;;4.32;;
67227;SDS011;54139;42.616;23.748;2023-02-28T20:26:04;5.75;;;5.25;;
67227;SDS011;54139;42.616;23.748;2023-02-28T20:28:30;5.38;;;4.88;;
67227;SDS011;54139;42.616;23.748;2023-02-28T20:30:56;5.55;;;5.10;;
67227;SDS011;54139;42.616;23.748;2023-02-28T20:33:21;5.60;;;5.10;;
67227;SDS011;54139;42.616;23.748;2023-02-28T20:35:47;7.43;;;6.75;;
67227;SDS011;54139;42.616;23.748;2023-02-28T20:38:16;6.05;;;5.55;;
67227;SDS011;54139;42.616;23.748;2023-02-28T20:40:42;6.60;;;5.95;;
67227;SDS011;54139;42.616;23.748;2023-02-28T20:43:07;5.35;;;4.95;;
67227;SDS011;54139;42.616;23.748;2023-02-28T20:45:33;5.82;;;5.32;;
67227;SDS011;54139;42.616;23.748;2023-02-28T20:47:59;5.60;;;4.97;;
67227;SDS011;54139;42.616;23.748;2023-02-28T20:50:25;4.55;;;4.15;;
67227;SDS011;54139;42.616;23.748;2023-02-28T20:52:50;4.38;;;3.97;;
67227;SDS011;54139;42.616;23.748;2023-02-28T20:55:16;4.72;;;4.32;;
67227;SDS011;54139;42.616;23.748;2023-02-28T20:57:41;5.22;;;4.72;;
67227;SDS011;54139;42.616;23.748;2023-02-28T21:00:07;6.97;;;6.32;;
67227;SDS011;54139;42.616;23.748;2023-02-28T21:02:40;7.38;;;6.53;;
67227;SDS011;54139;42.616;23.748;2023-02-28T21:05:05;6.70;;;6.07;;
67227;SDS011;54139;42.616;23.748;2023-02-28T21:07:31;5.32;;;4.82;;
67227;SDS011;54139;42.616;23.748;2023-02-28T21:09:56;3.63;;;3.33;;
67227;SDS011;54139;42.616;23.748;2023-02-28T21:12:22;3.20;;;2.90;;
67227;SDS011;54139;42.616;23.748;2023-02-28T21:14:47;2.40;;;2.20;;
67227;SDS011;54139;42.616;23.748;2023-02-28T21:17:13;3.13;;;2.80;;
67227;SDS011;54139;42.616;23.748;2023-02-28T21:19:38;2.63;;;2.42;;
67227;SDS011;54139;42.616;23.748;2023-02-28T21:22:04;3.08;;;2.78;;
67227;SDS011;54139;42.616;23.748;2023-02-28T21:24:29;4.55;;;4.15;;
67227;SDS011;54139;42.616;23.748;2023-02-28T21:26:55;3.13;;;2.83;;
67227;SDS011;54139;42.616;23.748;2023-02-28T21:29:25;3.88;;;3.55;;
67227;SDS011;54139;42.616;23.748;2023-02-28T21:31:51;3.80;;;3.40;;
67227;SDS011;54139;42.616;23.748;2023-02-28T21:34:17;4.50;;;3.55;;
67227;SDS011;54139;42.616;23.748;2023-02-28T21:36:43;3.50;;;3.20;;
67227;SDS011;54139;42.616;23.748;2023-02-28T21:39:16;3.47;;;3.15;;
67227;SDS011;54139;42.616;23.748;2023-02-28T21:41:43;3.67;;;3.35;;
67227;SDS011;54139;42.616;23.748;2023-02-28T21:44:10;3.28;;;2.97;;
67227;SDS011;54139;42.616;23.748;2023-02-28T21:46:42;4.07;;;2.97;;
67227;SDS011;54139;42.616;23.748;2023-02-28T21:49:11;3.53;;;3.23;;
67227;SDS011;54139;42.616;23.748;2023-02-28T21:51:36;3.50;;;3.20;;
67227;SDS011;54139;42.616;23.748;2023-02-28T21:54:02;3.97;;;3.28;;
67227;SDS011;54139;42.616;23.748;2023-02-28T21:56:29;3.05;;;2.80;;
67227;SDS011;54139;42.616;23.748;2023-02-28T21:58:56;2.95;;;2.75;;
67227;SDS011;54139;42.616;23.748;2023-02-28T22:01:25;3.70;;;3.40;;
67227;SDS011;54139;42.616;23.748;2023-02-28T22:03:59;3.17;;;2.90;;
67227;SDS011;54139;42.616;23.748;2023-02-28T22:06:30;3.45;;;3.15;;
67227;SDS011;54139;42.616;23.748;2023-02-28T22:08:58;3.20;;;2.92;;